Time;durP1;ratioP1;P1;durP2;ratioP2;P2;SDS_P1;SDS_P2;PMS_P1;PMS_P2;Temp;Humidity;BMP_temperature;BMP_pressure;BME280_temperature;BME280_humidity;BME280_pressure;Samples;Min_cycle;Max_cycle;Signal;HPM_P1;HPM_P2
2022/03/23 00:00:18;;;;;;;19.17;11.17;;;;;;;4.43;65.23;99865.13;4973383;28;20222;-57
2022/03/23 00:02:45;;;;;;;21.57;12.03;;;;;;;4.53;64.72;99868.06;4983753;28;20662;-56
2022/03/23 00:05:12;;;;;;;21.23;12.43;;;;;;;4.43;65.84;99870.31;4991203;28;20217;-56
2022/03/23 00:07:39;;;;;;;24.07;12.00;;;;;;;4.35;66.45;99861.25;4993075;28;20713;-57
2022/03/23 00:10:08;;;;;;;23.20;11.53;;;;;;;4.32;65.95;99862.28;4992743;28;20195;-57
2022/03/23 00:12:35;;;;;;;18.93;10.73;;;;;;;4.27;65.58;99862.50;4992929;28;20718;-55
2022/03/23 00:15:02;;;;;;;19.40;10.93;;;;;;;4.31;65.61;99862.34;4992790;28;20230;-56
2022/03/23 00:17:28;;;;;;;19.17;12.20;;;;;;;4.35;66.10;99859.53;4992444;28;20736;-56
2022/03/23 00:19:55;;;;;;;18.90;11.13;;;;;;;4.37;65.65;99862.88;4992649;28;20213;-56
2022/03/23 00:22:27;;;;;;;19.53;11.37;;;;;;;4.35;65.33;99867.28;4992320;28;20244;-55
2022/03/23 00:24:55;;;;;;;22.83;11.67;;;;;;;4.34;65.29;99865.63;4992081;28;20281;-57
2022/03/23 00:27:24;;;;;;;18.03;11.30;;;;;;;4.33;64.87;99866.53;4992817;28;20241;-56
2022/03/23 00:29:50;;;;;;;21.60;11.37;;;;;;;4.38;64.11;99861.09;4991232;28;20233;-56
2022/03/23 00:32:17;;;;;;;19.70;11.37;;;;;;;4.24;64.47;99864.41;4991305;28;20200;-56
2022/03/23 00:34:44;;;;;;;22.43;11.67;;;;;;;4.23;65.67;99863.59;4990613;28;20614;-56
2022/03/23 00:37:11;;;;;;;18.03;11.47;;;;;;;4.66;62.83;99864.81;4992572;28;20190;-56
2022/03/23 00:39:38;;;;;;;21.27;11.30;;;;;;;4.40;63.13;99862.72;4992038;28;20261;-56
2022/03/23 00:42:04;;;;;;;20.03;11.57;;;;;;;4.57;62.49;99872.16;4991509;28;20194;-56
2022/03/23 00:44:34;;;;;;;19.43;12.03;;;;;;;4.56;62.60;99862.72;4982258;28;20282;-56
2022/03/23 00:47:01;;;;;;;21.50;11.00;;;;;;;4.49;61.65;99861.38;4984872;28;20666;-56
2022/03/23 00:49:29;;;;;;;21.53;11.43;;;;;;;4.42;62.92;99868.63;4971980;28;20202;-55
2022/03/23 00:51:56;;;;;;;19.60;11.80;;;;;;;4.51;63.39;99862.13;4971228;28;20207;-56
2022/03/23 00:54:23;;;;;;;20.80;12.27;;;;;;;4.61;61.95;99869.41;4991885;28;20209;-56
2022/03/23 00:56:51;;;;;;;20.57;12.07;;;;;;;4.46;62.30;99865.88;4992333;28;20187;-56
2022/03/23 00:59:19;;;;;;;21.07;12.30;;;;;;;4.42;62.01;99860.88;4991219;28;20253;-56
2022/03/23 01:01:48;;;;;;;20.93;11.47;;;;;;;4.38;63.25;99866.28;4991792;28;20201;-56
2022/03/23 01:04:18;;;;;;;23.03;11.60;;;;;;;4.46;62.19;99871.06;4980884;28;20228;-56
2022/03/23 01:06:45;;;;;;;18.07;10.37;;;;;;;4.43;62.41;99864.28;4992048;28;20207;-56
2022/03/23 01:09:12;;;;;;;20.93;11.33;;;;;;;4.36;62.71;99874.13;4990692;28;20191;-56
2022/03/23 01:11:39;;;;;;;22.20;10.90;;;;;;;4.27;62.45;99875.41;4992000;28;20271;-56
2022/03/23 01:14:07;;;;;;;21.00;11.30;;;;;;;4.20;63.16;99874.09;4991797;28;20260;-56
2022/03/23 01:16:35;;;;;;;19.30;10.73;;;;;;;4.33;62.49;99870.84;4990080;28;20206;-56
2022/03/23 01:19:03;;;;;;;18.47;11.27;;;;;;;4.22;64.91;99874.84;4990484;28;20206;-56
2022/03/23 01:21:32;;;;;;;20.70;11.23;;;;;;;4.10;64.14;99872.91;4990599;28;20229;-56
2022/03/23 01:23:59;;;;;;;22.73;11.90;;;;;;;3.99;65.08;99876.00;4991275;28;20276;-56
2022/03/23 01:26:26;;;;;;;21.80;11.33;;;;;;;3.97;64.39;99875.25;4990510;28;20662;-56
2022/03/23 01:28:54;;;;;;;19.00;11.43;;;;;;;3.82;64.68;99875.09;4990103;28;20577;-56
2022/03/23 01:31:21;;;;;;;18.13;10.70;;;;;;;3.75;65.31;99866.00;4990152;28;20205;-56
2022/03/23 01:33:49;;;;;;;19.93;11.27;;;;;;;3.68;65.69;99869.81;4990291;28;20222;-56
2022/03/23 01:36:17;;;;;;;17.73;11.33;;;;;;;3.81;64.47;99870.84;4988511;28;20204;-56
2022/03/23 01:38:46;;;;;;;18.60;11.17;;;;;;;3.75;65.11;99870.34;4989318;28;20301;-56
2022/03/23 01:41:14;;;;;;;18.77;10.83;;;;;;;3.64;65.48;99865.72;4988855;28;20225;-56
2022/03/23 01:43:41;;;;;;;19.10;11.37;;;;;;;3.77;63.58;99864.16;4988547;28;20199;-56
2022/03/23 01:46:08;;;;;;;19.63;11.47;;;;;;;3.77;65.17;99860.75;4969589;28;20190;-56
2022/03/23 01:48:34;;;;;;;21.07;11.60;;;;;;;3.72;64.72;99862.75;4981759;28;20266;-56
2022/03/23 01:51:01;;;;;;;20.67;11.00;;;;;;;3.79;63.82;99864.09;4990027;28;20192;-56
2022/03/23 01:53:31;;;;;;;21.37;11.87;;;;;;;3.65;65.29;99860.47;4989030;28;20210;-56
2022/03/23 01:55:58;;;;;;;17.77;11.57;;;;;;;3.57;65.45;99865.16;4988891;28;20245;-56
2022/03/23 01:58:25;;;;;;;24.37;11.47;;;;;;;3.53;65.19;99871.38;4989290;28;20198;-56
2022/03/23 02:00:52;;;;;;;19.23;11.60;;;;;;;3.74;65.17;99866.09;4988715;28;20633;-56
2022/03/23 02:03:19;;;;;;;26.33;11.33;;;;;;;3.70;65.59;99870.56;4990243;28;20185;-56
2022/03/23 02:05:48;;;;;;;18.60;10.93;;;;;;;3.70;65.07;99868.00;4984240;28;20221;-56
2022/03/23 02:08:19;;;;;;;22.47;10.70;;;;;;;3.62;65.41;99870.94;4988995;28;20218;-56
2022/03/23 02:10:51;;;;;;;18.90;11.07;;;;;;;3.57;64.04;99866.94;4988565;28;20201;-56
2022/03/23 02:13:27;;;;;;;18.47;10.70;;;;;;;3.76;64.11;99869.44;4989130;28;20188;-56
2022/03/23 02:15:53;;;;;;;17.93;10.67;;;;;;;3.65;64.58;99862.22;4973117;28;20305;-56
2022/03/23 02:18:21;;;;;;;21.77;11.27;;;;;;;3.61;62.86;99871.03;4969268;28;20214;-56
2022/03/23 02:20:47;;;;;;;18.57;11.20;;;;;;;3.53;62.81;99864.50;4969069;28;20301;-56
2022/03/23 02:23:16;;;;;;;18.17;10.57;;;;;;;3.61;61.99;99864.09;4969034;28;20621;-55
2022/03/23 02:25:48;;;;;;;18.53;10.57;;;;;;;3.62;63.16;99863.19;4970231;28;20211;-56
2022/03/23 02:28:15;;;;;;;21.80;10.77;;;;;;;3.63;62.72;99867.44;4970768;28;20200;-56
2022/03/23 02:30:42;;;;;;;20.57;10.23;;;;;;;3.61;63.44;99866.69;4969893;28;20188;-55
2022/03/23 02:33:09;;;;;;;18.47;10.73;;;;;;;3.69;61.22;99869.72;4970713;28;20191;-56
2022/03/23 02:35:36;;;;;;;18.90;9.97;;;;;;;3.63;62.21;99862.28;4927142;28;1264977;-56
2022/03/23 02:38:03;;;;;;;20.77;10.93;;;;;;;3.64;62.05;99858.78;4971477;28;20466;-55
2022/03/23 02:40:31;;;;;;;20.00;11.17;;;;;;;3.58;61.76;99859.09;4970729;28;20211;-56
2022/03/23 02:42:58;;;;;;;21.33;11.20;;;;;;;3.71;61.92;99855.91;4969814;28;20187;-56
2022/03/23 02:45:25;;;;;;;22.80;11.15;;;;;;;3.58;62.09;99855.69;4970155;28;20772;-56
2022/03/23 02:47:52;;;;;;;18.73;10.60;;;;;;;3.69;61.89;99856.81;4971727;28;20207;-55
2022/03/23 02:50:19;;;;;;;20.27;11.10;;;;;;;3.69;63.40;99861.16;4974840;28;20213;-55
2022/03/23 03:04:00;;;;;;;17.03;9.83;;;;;;;3.57;62.25;99854.00;4987584;28;20526;-55
2022/03/23 03:06:27;;;;;;;22.63;11.17;;;;;;;3.83;60.03;99852.72;4982102;28;20276;-55
2022/03/23 03:08:54;;;;;;;18.50;10.17;;;;;;;3.68;61.06;99855.16;4985019;28;20192;-55
2022/03/23 03:11:22;;;;;;;20.03;10.13;;;;;;;3.60;60.52;99854.69;4982007;28;20689;-55
2022/03/23 03:13:51;;;;;;;17.13;10.60;;;;;;;3.63;60.76;99862.28;4982454;28;20669;-55
2022/03/23 03:16:19;;;;;;;20.07;10.90;;;;;;;3.50;61.68;99859.47;4982597;28;20236;-56
2022/03/23 03:18:47;;;;;;;18.20;9.93;;;;;;;3.49;61.50;99868.13;4984202;28;20284;-55
2022/03/23 03:21:15;;;;;;;21.90;10.37;;;;;;;3.44;61.12;99864.09;4983081;28;20286;-55
2022/03/23 03:23:43;;;;;;;17.40;10.27;;;;;;;3.32;62.16;99871.50;4981890;28;20182;-54
2022/03/23 03:26:10;;;;;;;16.43;9.67;;;;;;;3.28;62.78;99869.16;4982348;28;20487;-56
2022/03/23 03:28:39;;;;;;;20.17;11.10;;;;;;;3.31;63.14;99871.59;4982795;28;20185;-55
2022/03/23 03:34:48;;;;;;;18.23;9.77;;;;;;;3.12;64.14;99879.38;4984453;28;20232;-56
2022/03/23 03:37:14;;;;;;;21.80;10.93;;;;;;;3.10;65.40;99885.47;4995944;28;20190;-55
2022/03/23 03:39:41;;;;;;;16.70;9.60;;;;;;;3.11;65.01;99886.28;4994638;28;20544;-56
2022/03/23 03:42:08;;;;;;;19.30;10.50;;;;;;;3.19;64.58;99891.06;4991879;28;20574;-55
2022/03/23 03:44:34;;;;;;;19.73;10.30;;;;;;;3.09;64.07;99885.50;4990673;28;20817;-55
2022/03/23 03:47:01;;;;;;;18.93;11.17;;;;;;;3.06;64.77;99891.66;4992829;28;20205;-55
2022/03/23 03:49:28;;;;;;;21.27;10.93;;;;;;;3.01;65.43;99893.63;4997856;28;20198;-56
2022/03/23 03:51:56;;;;;;;26.10;12.57;;;;;;;2.98;66.86;99896.34;4997499;28;20193;-55
2022/03/23 03:54:23;;;;;;;22.77;12.47;;;;;;;3.01;67.49;99895.34;4992224;28;20744;-55
2022/03/23 03:56:50;;;;;;;23.37;12.57;;;;;;;2.99;68.02;99895.44;4993445;28;20200;-55
2022/03/23 03:59:18;;;;;;;27.53;13.13;;;;;;;2.94;68.33;99894.81;4991284;28;20203;-56
2022/03/23 04:01:45;;;;;;;23.37;12.47;;;;;;;2.92;68.72;99902.59;4995651;28;20226;-55
2022/03/23 04:04:12;;;;;;;23.47;12.97;;;;;;;2.87;68.76;99904.56;4994427;28;20303;-56
2022/03/23 04:06:38;;;;;;;19.17;12.37;;;;;;;2.90;68.27;99904.41;4994059;28;20189;-55
2022/03/23 04:09:07;;;;;;;20.33;11.73;;;;;;;2.83;68.42;99907.34;4993694;28;20219;-55
2022/03/23 04:11:35;;;;;;;20.77;11.10;;;;;;;2.76;68.11;99915.38;4996772;28;20534;-55
2022/03/23 04:14:01;;;;;;;21.90;12.53;;;;;;;2.68;68.50;99911.44;4989628;28;20259;-55
2022/03/23 04:16:28;;;;;;;23.30;13.23;;;;;;;2.70;69.81;99909.63;4993330;28;20738;-55
2022/03/23 04:18:55;;;;;;;29.60;13.70;;;;;;;2.64;69.90;99905.59;4992468;28;20192;-55
2022/03/23 04:21:22;;;;;;;22.50;12.57;;;;;;;2.57;69.58;99911.94;4996263;28;20239;-56
2022/03/23 04:23:48;;;;;;;26.23;12.90;;;;;;;2.56;69.37;99912.84;4993326;28;20676;-55
2022/03/23 04:26:17;;;;;;;21.93;11.83;;;;;;;2.59;68.36;99912.69;4991651;28;20197;-55
2022/03/23 04:28:43;;;;;;;21.37;11.97;;;;;;;2.50;68.87;99904.47;4993090;28;20743;-55
2022/03/23 04:31:10;;;;;;;21.87;12.33;;;;;;;2.52;68.34;99909.56;4992537;28;20462;-55
2022/03/23 04:33:37;;;;;;;22.53;12.63;;;;;;;2.38;69.04;99912.75;4992399;28;20200;-55
2022/03/23 04:36:06;;;;;;;21.73;11.40;;;;;;;2.39;69.42;99918.75;4993612;28;20283;-55
2022/03/23 04:38:32;;;;;;;21.83;11.70;;;;;;;2.50;69.24;99921.69;4997624;28;20200;-56
2022/03/23 04:40:59;;;;;;;20.93;11.67;;;;;;;2.43;69.84;99928.00;5000259;28;20212;-56
2022/03/23 04:43:27;;;;;;;22.53;12.00;;;;;;;2.30;69.85;99919.97;4997978;28;20188;-56
2022/03/23 04:45:54;;;;;;;23.40;11.27;;;;;;;2.30;70.03;99925.09;4994621;28;20221;-56
2022/03/23 04:48:20;;;;;;;20.27;12.30;;;;;;;2.32;69.88;99921.59;4988968;28;20722;-55
2022/03/23 04:50:48;;;;;;;20.73;11.67;;;;;;;2.27;70.53;99927.81;4993346;28;20207;-55
2022/03/23 04:53:15;;;;;;;19.33;11.87;;;;;;;2.18;70.75;99919.56;4993042;28;20189;-55
2022/03/23 04:55:41;;;;;;;20.90;11.30;;;;;;;2.12;70.94;99924.16;4992891;28;20231;-55
2022/03/23 04:58:08;;;;;;;21.97;11.57;;;;;;;2.09;71.03;99920.00;4995098;28;20201;-55
2022/03/23 05:00:36;;;;;;;20.43;12.67;;;;;;;2.25;71.13;99927.03;4993487;28;20222;-55
2022/03/23 05:03:04;;;;;;;22.00;11.87;;;;;;;2.25;70.86;99927.03;4994803;28;20628;-55
2022/03/23 05:05:32;;;;;;;20.63;11.93;;;;;;;2.17;71.15;99930.78;4990634;28;20251;-57
2022/03/23 05:07:59;;;;;;;21.27;11.13;;;;;;;2.13;70.70;99928.41;4993701;28;20232;-55
2022/03/23 05:10:27;;;;;;;18.47;11.37;;;;;;;2.17;71.04;99933.34;4989233;28;20570;-55
2022/03/23 05:12:54;;;;;;;22.00;12.07;;;;;;;2.20;70.95;99930.66;4992169;28;20826;-55
2022/03/23 05:15:21;;;;;;;21.63;11.80;;;;;;;2.32;70.17;99939.63;4989652;28;20218;-56
2022/03/23 05:17:49;;;;;;;24.17;11.40;;;;;;;2.27;70.39;99940.69;4990967;28;21026;-55
2022/03/23 05:20:18;;;;;;;18.63;11.37;;;;;;;2.34;70.63;99940.38;4993537;28;20588;-55
2022/03/23 05:22:45;;;;;;;21.87;11.00;;;;;;;2.21;70.56;99945.22;4995249;28;20200;-55
2022/03/23 05:25:13;;;;;;;21.20;10.73;;;;;;;2.15;71.37;99944.66;4989780;28;20268;-56
2022/03/23 05:27:41;;;;;;;21.67;11.07;;;;;;;2.10;71.58;99942.28;4993392;28;20236;-56
2022/03/23 05:30:10;;;;;;;17.00;10.97;;;;;;;2.10;71.73;99941.41;4991249;28;20217;-55
2022/03/23 05:32:39;;;;;;;22.57;11.63;;;;;;;2.13;71.86;99949.03;4994020;28;20205;-55
2022/03/23 05:35:09;;;;;;;24.43;11.87;;;;;;;2.10;71.73;99949.16;4993113;28;21067;-55
2022/03/23 05:37:36;;;;;;;31.87;15.87;;;;;;;2.14;71.85;99948.13;4994980;28;20279;-55
2022/03/23 05:40:03;;;;;;;26.20;13.83;;;;;;;2.32;70.36;99947.34;4994210;28;20221;-56
2022/03/23 05:42:30;;;;;;;21.43;11.97;;;;;;;2.29;70.76;99952.63;4992307;28;20236;-56
2022/03/23 05:44:57;;;;;;;21.23;11.40;;;;;;;2.29;71.00;99957.78;4996011;28;20257;-55
2022/03/23 05:47:24;;;;;;;21.20;11.17;;;;;;;2.38;70.13;99955.72;4990220;28;20197;-55
2022/03/23 05:49:51;;;;;;;21.93;11.73;;;;;;;2.39;70.06;99953.06;4992852;28;20263;-55
2022/03/23 05:52:20;;;;;;;20.60;11.27;;;;;;;2.38;70.11;99955.72;4989573;28;20224;-55
2022/03/23 05:54:46;;;;;;;25.33;12.10;;;;;;;2.38;70.16;99963.44;4992988;28;20703;-55
2022/03/23 05:57:13;;;;;;;24.27;12.97;;;;;;;2.38;71.37;99966.84;4995520;28;20279;-55
2022/03/23 05:59:40;;;;;;;18.80;10.90;;;;;;;2.39;71.71;99967.69;4994429;28;20192;-55
2022/03/23 06:02:07;;;;;;;19.80;12.57;;;;;;;2.41;71.45;99973.63;4989370;28;20210;-56
2022/03/23 06:04:34;;;;;;;22.33;12.33;;;;;;;2.43;71.32;99969.25;4993886;28;20235;-55
2022/03/23 06:07:01;;;;;;;22.50;11.60;;;;;;;2.47;71.79;99976.78;4996870;28;20192;-55
2022/03/23 06:09:29;;;;;;;22.20;12.17;;;;;;;2.49;71.80;99969.81;4984732;28;20215;-55
2022/03/23 06:11:56;;;;;;;20.63;12.73;;;;;;;2.57;72.45;99982.38;4992990;28;20201;-55
2022/03/23 06:14:24;;;;;;;20.73;12.53;;;;;;;2.62;72.22;99990.75;4991109;28;20223;-55
2022/03/23 06:16:51;;;;;;;25.53;13.20;;;;;;;2.62;72.55;99992.47;4989504;28;20240;-56
2022/03/23 06:19:17;;;;;;;24.00;13.10;;;;;;;2.63;71.93;99986.44;4989640;28;20665;-56
2022/03/23 06:21:44;;;;;;;21.53;12.30;;;;;;;2.72;71.53;99990.34;4992359;28;20220;-56
2022/03/23 06:24:11;;;;;;;18.30;10.77;;;;;;;2.77;71.79;99985.81;4995305;28;20219;-56
2022/03/23 06:26:39;;;;;;;21.80;11.63;;;;;;;2.79;71.70;99997.75;4990972;28;20189;-56
2022/03/23 06:29:06;;;;;;;22.30;11.37;;;;;;;2.84;72.36;99999.28;4991076;28;20207;-56
2022/03/23 06:31:33;;;;;;;24.17;12.00;;;;;;;2.90;72.22;99996.44;4994156;28;20185;-56
2022/03/23 06:34:00;;;;;;;19.50;11.73;;;;;;;2.96;71.76;99996.16;4995816;28;20201;-54
2022/03/23 06:36:27;;;;;;;20.13;12.00;;;;;;;3.03;71.62;99991.56;4994258;28;20205;-56
2022/03/23 06:38:53;;;;;;;24.30;14.10;;;;;;;3.12;71.28;99990.34;4989020;28;20201;-56
2022/03/23 06:41:20;;;;;;;33.93;18.70;;;;;;;3.15;71.74;99992.78;4992656;28;20232;-56
2022/03/23 06:43:48;;;;;;;22.03;12.97;;;;;;;3.20;71.58;99995.94;4993087;28;20199;-55
2022/03/23 06:46:15;;;;;;;19.80;12.40;;;;;;;3.27;71.41;99994.75;4994179;28;20196;-56
2022/03/23 06:48:42;;;;;;;24.73;13.40;;;;;;;3.38;71.11;99989.94;4992504;28;20186;-56
2022/03/23 06:51:08;;;;;;;22.03;11.53;;;;;;;3.41;71.10;99991.56;4993265;28;20208;-56
2022/03/23 06:53:35;;;;;;;18.80;11.00;;;;;;;3.46;71.38;99997.34;4988955;28;20206;-56
2022/03/23 06:56:04;;;;;;;21.03;11.90;;;;;;;3.50;72.18;99995.44;4993295;28;20213;-56
2022/03/23 06:58:31;;;;;;;22.97;11.33;;;;;;;3.55;72.47;99996.06;5000050;28;20191;-56
2022/03/23 07:01:00;;;;;;;22.20;11.73;;;;;;;3.60;72.21;99996.69;4986164;28;20767;-51
2022/03/23 07:03:26;;;;;;;22.63;12.00;;;;;;;3.66;71.88;99998.16;4991823;28;20201;-53
2022/03/23 07:05:53;;;;;;;21.97;11.73;;;;;;;3.81;71.21;100005.16;4993312;28;20228;-51
2022/03/23 07:11:04;;;;;;;22.13;12.03;;;;;;;3.93;72.48;100010.66;4986133;28;20239;-51
2022/03/23 07:13:31;;;;;;;22.97;12.30;;;;;;;4.00;71.25;100006.88;4989552;28;20192;-52
2022/03/23 07:15:59;;;;;;;21.77;14.18;;;;;;;4.11;71.23;100008.94;4991757;28;20515;-52
2022/03/23 07:18:27;;;;;;;19.50;12.27;;;;;;;4.20;69.58;100018.84;4993014;28;20198;-51
2022/03/23 07:20:54;;;;;;;22.87;11.67;;;;;;;4.27;69.19;100015.00;4994184;28;20284;-52
2022/03/23 07:23:21;;;;;;;21.80;12.67;;;;;;;4.36;68.30;100024.06;4992471;28;20584;-51
2022/03/23 07:25:47;;;;;;;22.70;12.93;;;;;;;4.43;69.45;100019.41;4993484;28;20274;-53
2022/03/23 07:28:14;;;;;;;20.73;11.90;;;;;;;4.50;69.34;100019.97;4995823;28;20206;-52
2022/03/23 07:30:41;;;;;;;20.50;11.23;;;;;;;4.58;68.34;100030.75;4999417;28;20228;-52
2022/03/23 07:33:10;;;;;;;22.03;11.80;;;;;;;4.71;67.15;100029.22;4999151;28;20222;-52
2022/03/23 07:35:37;;;;;;;21.97;11.93;;;;;;;4.78;67.54;100029.72;5001797;28;20248;-52
2022/03/23 07:38:04;;;;;;;23.97;12.17;;;;;;;4.90;67.21;100028.25;4992760;28;20294;-53
2022/03/23 07:40:31;;;;;;;24.80;12.93;;;;;;;5.03;66.99;100033.63;4995241;28;20688;-52
2022/03/23 07:42:59;;;;;;;28.27;14.37;;;;;;;5.18;66.37;100037.16;4998166;28;20232;-52
2022/03/23 07:45:26;;;;;;;26.20;15.07;;;;;;;5.27;66.85;100041.84;4995044;28;20427;-53
2022/03/23 07:47:53;;;;;;;27.23;14.23;;;;;;;5.42;65.62;100039.34;4997077;28;20196;-51
2022/03/23 07:50:21;;;;;;;30.80;14.77;;;;;;;5.61;64.86;100042.63;4999865;28;20673;-53
2022/03/23 07:52:48;;;;;;;22.43;12.67;;;;;;;5.72;65.53;100052.38;4996578;28;20209;-51
2022/03/23 07:55:15;;;;;;;21.80;12.90;;;;;;;5.91;65.23;100051.38;4993372;28;20828;-53
2022/03/23 07:57:42;;;;;;;20.03;12.07;;;;;;;6.08;65.20;100047.84;4997039;28;20268;-52
2022/03/23 08:00:10;;;;;;;21.57;13.47;;;;;;;6.24;64.00;100052.16;4995839;28;20224;-52
2022/03/23 08:02:41;;;;;;;31.03;16.67;;;;;;;6.42;65.58;100055.44;4996431;28;20829;-53
2022/03/23 08:05:09;;;;;;;31.13;18.57;;;;;;;6.53;65.14;100058.25;4997332;28;20313;-52
2022/03/23 08:07:38;;;;;;;39.37;19.50;;;;;;;6.59;64.32;100054.47;4996255;28;20198;-53
2022/03/23 08:10:05;;;;;;;34.17;18.10;;;;;;;6.67;64.86;100048.84;4994430;28;20216;-53
2022/03/23 08:12:32;;;;;;;33.10;18.77;;;;;;;6.76;64.96;100063.84;4993716;28;20867;-52
2022/03/23 08:14:59;;;;;;;35.90;19.35;;;;;;;6.81;65.19;100050.63;4995836;28;20921;-52
2022/03/23 08:17:26;;;;;;;33.70;18.97;;;;;;;6.92;64.59;100055.97;4993329;28;20598;-52
2022/03/23 08:22:35;;;;;;;36.53;20.63;;;;;;;7.04;63.56;100057.84;4996381;28;20601;-51
2022/03/23 08:25:04;;;;;;;35.37;18.40;;;;;;;7.10;63.32;100056.66;4995709;28;20246;-53
2022/03/23 08:27:31;;;;;;;33.50;18.57;;;;;;;7.14;62.50;100052.94;4996369;28;20544;-52
2022/03/23 08:29:57;;;;;;;33.20;19.27;;;;;;;7.24;62.85;100054.06;4998386;28;20212;-52
2022/03/23 08:32:26;;;;;;;34.87;18.30;;;;;;;7.25;61.67;100052.28;4998860;28;20202;-52
2022/03/23 08:34:53;;;;;;;36.20;19.70;;;;;;;7.29;61.10;100051.16;4996020;28;20793;-53
2022/03/23 08:37:20;;;;;;;31.07;18.93;;;;;;;7.40;61.17;100063.50;4999580;28;20195;-53
2022/03/23 08:39:47;;;;;;;33.13;19.07;;;;;;;7.42;60.23;100058.19;4994879;28;20234;-53
2022/03/23 08:42:15;;;;;;;33.50;18.67;;;;;;;7.45;60.36;100061.44;5002889;28;20543;-52
2022/03/23 08:44:42;;;;;;;29.90;17.70;;;;;;;7.51;60.15;100060.22;4994173;28;20838;-53
2022/03/23 08:47:09;;;;;;;34.17;18.27;;;;;;;7.64;59.70;100057.69;4995000;28;20199;-53
2022/03/23 08:49:36;;;;;;;31.40;17.80;;;;;;;7.69;59.53;100055.63;4986994;28;20203;-52
2022/03/23 08:52:03;;;;;;;35.77;20.73;;;;;;;7.76;59.13;100056.91;4995968;28;20197;-52
2022/03/23 08:54:30;;;;;;;33.47;17.80;;;;;;;7.89;59.33;100058.72;4991109;28;20223;-52
2022/03/23 08:56:56;;;;;;;31.90;18.80;;;;;;;7.96;58.74;100053.03;4990276;28;20217;-53
2022/03/23 08:59:25;;;;;;;34.90;19.03;;;;;;;8.06;58.08;100055.03;4995056;28;20203;-53
2022/03/23 09:01:51;;;;;;;31.63;18.83;;;;;;;8.16;57.85;100056.13;5002476;28;20785;-51
2022/03/23 09:04:18;;;;;;;32.40;18.90;;;;;;;8.17;57.18;100042.16;4993128;28;20298;-52
2022/03/23 09:06:45;;;;;;;29.23;17.83;;;;;;;8.28;57.03;100049.28;4998310;28;20276;-53
2022/03/23 09:09:11;;;;;;;32.40;18.83;;;;;;;8.40;55.72;100043.28;4995762;28;20203;-54
2022/03/23 09:11:38;;;;;;;35.17;18.07;;;;;;;8.45;55.99;100045.56;4995090;28;20215;-54
2022/03/23 09:14:05;;;;;;;30.37;18.13;;;;;;;8.42;56.76;100046.63;4994787;28;20323;-52
2022/03/23 09:16:34;;;;;;;36.27;18.57;;;;;;;8.54;57.18;100047.59;4999564;28;20219;-53
2022/03/23 09:19:02;;;;;;;34.17;19.60;;;;;;;8.70;56.11;100052.59;4994875;28;20199;-52
2022/03/23 09:21:29;;;;;;;34.83;20.20;;;;;;;8.82;57.04;100048.34;4995774;28;20285;-52
2022/03/23 09:23:56;;;;;;;42.60;21.13;;;;;;;8.74;55.30;100047.16;4995417;28;20235;-54
2022/03/23 09:26:22;;;;;;;33.13;19.73;;;;;;;8.85;56.00;100048.13;5000299;28;20202;-53
2022/03/23 09:28:51;;;;;;;36.70;20.57;;;;;;;8.89;54.98;100045.31;4991625;28;20204;-53
2022/03/23 09:31:18;;;;;;;37.63;19.63;;;;;;;9.03;54.18;100045.16;4997639;28;20200;-54
2022/03/23 09:33:48;;;;;;;31.57;19.10;;;;;;;9.12;54.97;100049.75;4993084;28;20675;-53
2022/03/23 09:38:59;;;;;;;36.80;20.17;;;;;;;9.36;53.52;100040.34;4991339;28;20197;-52
2022/03/23 09:41:26;;;;;;;34.37;19.33;;;;;;;9.35;53.27;100049.94;4994655;28;20201;-52
2022/03/23 09:43:53;;;;;;;36.87;20.63;;;;;;;9.53;52.32;100040.00;4993883;28;20216;-52
2022/03/23 09:46:20;;;;;;;35.40;19.30;;;;;;;9.60;52.29;100041.19;4998370;28;20227;-52
2022/03/23 09:48:48;;;;;;;35.23;19.83;;;;;;;9.59;50.96;100038.72;4990879;28;20203;-51
2022/03/23 09:51:15;;;;;;;39.07;20.00;;;;;;;9.71;51.01;100047.41;4984967;28;20736;-53
2022/03/23 09:53:43;;;;;;;37.27;20.77;;;;;;;9.74;49.88;100037.63;4988297;28;20596;-53
2022/03/23 09:56:10;;;;;;;38.90;20.27;;;;;;;9.77;49.17;100044.38;4985173;28;20248;-52
2022/03/23 09:58:36;;;;;;;35.23;20.40;;;;;;;9.89;49.61;100042.66;4980941;28;20190;-52
2022/03/23 10:01:03;;;;;;;31.30;18.50;;;;;;;9.93;49.36;100040.66;4985501;28;20195;-52
2022/03/23 10:04:29;;;;;;;36.00;20.77;;;;;;;9.93;48.57;100038.03;4979068;28;20214;-53
2022/03/23 10:07:02;;;;;;;39.73;21.03;;;;;;;10.04;50.40;100038.09;4985490;28;20194;-52
2022/03/23 10:10:11;;;;;;;37.93;18.97;;;;;;;10.20;48.38;100035.19;4985943;28;20217;-53
2022/03/23 10:13:21;;;;;;;33.37;18.87;;;;;;;10.27;47.90;100028.56;4981364;28;20186;-53
2022/03/23 10:16:47;;;;;;;33.53;20.10;;;;;;;10.38;48.23;100033.00;4982788;28;20225;-53
2022/03/23 10:19:15;;;;;;;33.37;19.10;;;;;;;10.44;49.29;100029.97;4929048;29;20191;-52
2022/03/23 10:21:42;;;;;;;38.57;20.47;;;;;;;10.50;48.37;100030.44;4968591;28;20219;-53
2022/03/23 10:24:31;;;;;;;39.53;20.40;;;;;;;10.55;48.12;100026.53;4978592;28;20576;-53
2022/03/23 10:26:59;;;;;;;40.33;20.60;;;;;;;10.67;48.18;100022.13;4978223;28;20214;-53
2022/03/23 10:29:27;;;;;;;39.77;20.47;;;;;;;10.71;48.83;100017.53;4980378;28;20212;-53
2022/03/23 10:32:05;;;;;;;38.03;21.07;;;;;;;10.75;49.27;100017.16;4973992;28;20194;-54
2022/03/23 10:34:45;;;;;;;36.93;20.23;;;;;;;10.82;49.43;100019.31;4970685;28;20214;-53
2022/03/23 10:37:13;;;;;;;35.80;20.37;;;;;;;10.91;47.37;100016.00;4986533;28;20191;-53
2022/03/23 10:39:40;;;;;;;37.00;21.07;;;;;;;11.03;48.10;100006.38;4990771;28;20685;-53
2022/03/23 10:42:10;;;;;;;39.13;20.90;;;;;;;11.15;47.25;100013.25;4990792;28;20200;-53
2022/03/23 10:44:36;;;;;;;35.70;21.13;;;;;;;11.22;48.74;100009.19;4975436;28;20212;-52
2022/03/23 10:47:03;;;;;;;40.17;22.13;;;;;;;11.34;48.30;100011.78;4980569;28;20201;-51
2022/03/23 10:49:33;;;;;;;35.23;20.43;;;;;;;11.44;46.96;100009.28;4979155;28;20763;-54
2022/03/23 10:52:14;;;;;;;35.37;20.30;;;;;;;11.43;47.81;100005.84;4984119;28;20202;-51
2022/03/23 10:54:54;;;;;;;37.67;21.27;;;;;;;11.50;49.19;100003.56;4979843;28;20209;-54
2022/03/23 10:57:21;;;;;;;35.47;21.87;;;;;;;11.70;47.69;100007.19;4988683;28;20279;-54
2022/03/23 10:59:48;;;;;;;40.90;21.23;;;;;;;11.60;46.85;99998.44;4978581;28;20259;-55
2022/03/23 11:02:16;;;;;;;37.67;21.40;;;;;;;11.71;46.23;100003.63;4979149;28;20210;-54
2022/03/23 11:04:49;;;;;;;39.53;22.33;;;;;;;11.87;46.47;99997.16;4977020;28;20307;-55
2022/03/23 11:07:28;;;;;;;39.73;21.20;;;;;;;11.93;46.92;99994.84;4979238;28;20679;-54
2022/03/23 11:18:11;;;;;;;44.07;21.43;;;;;;;12.46;43.85;99992.34;4984201;28;20194;-54
2022/03/23 11:20:46;;;;;;;40.80;23.10;;;;;;;12.57;44.68;99997.50;4983474;28;20198;-54
2022/03/23 11:23:24;;;;;;;38.13;21.97;;;;;;;12.63;43.68;99994.34;4981983;28;20217;-53
2022/03/23 11:25:53;;;;;;;40.90;22.00;;;;;;;12.72;45.34;99990.13;4981648;28;20231;-52
2022/03/23 11:28:20;;;;;;;37.53;20.40;;;;;;;12.68;44.70;99993.97;4983107;28;20194;-52
2022/03/23 11:30:48;;;;;;;40.03;21.63;;;;;;;12.76;45.45;99994.13;4981468;28;20217;-54
2022/03/23 11:33:17;;;;;;;42.43;20.73;;;;;;;12.86;45.29;99986.31;4984764;28;20234;-53
2022/03/23 11:35:48;;;;;;;41.13;23.70;;;;;;;13.03;44.07;99989.28;4981620;28;20257;-52
2022/03/23 11:38:16;;;;;;;36.93;21.17;;;;;;;12.98;44.70;99984.44;4982335;28;20277;-51
2022/03/23 11:40:45;;;;;;;36.87;20.47;;;;;;;13.00;44.00;99977.25;4981451;28;20231;-51
2022/03/23 11:43:13;;;;;;;40.30;22.23;;;;;;;13.02;44.91;99975.34;4985338;28;20212;-52
2022/03/23 11:45:41;;;;;;;43.67;23.63;;;;;;;12.94;45.04;99965.53;4987892;28;20806;-52
2022/03/23 11:48:30;;;;;;;35.80;21.17;;;;;;;13.16;44.74;99958.41;4989359;28;20200;-53
2022/03/23 11:51:15;;;;;;;48.30;22.23;;;;;;;13.16;44.78;99957.56;4992807;28;20211;-52
2022/03/23 11:53:54;;;;;;;42.40;23.03;;;;;;;13.26;44.65;99943.50;4992249;28;20202;-53
2022/03/23 11:56:26;;;;;;;50.97;23.13;;;;;;;13.30;44.70;99946.72;4993237;28;20433;-51
2022/03/23 11:58:53;;;;;;;39.87;22.40;;;;;;;13.48;43.61;99949.50;4993361;28;20211;-52